sensor_id;sensor_type;location;lat;lon;timestamp;pressure;altitude;pressure_sealevel;temperature;humidity
63399;BME280;49533;-34.520;150.798;2023-04-01T00:01:48;100458.06;;;19.88;52.32
63399;BME280;49533;-34.520;150.798;2023-04-01T00:04:16;100476.50;;;20.11;52.12
63399;BME280;49533;-34.520;150.798;2023-04-01T00:06:43;100500.22;;;20.15;52.02
63399;BME280;49533;-34.520;150.798;2023-04-01T00:09:10;100503.91;;;20.27;51.90
63399;BME280;49533;-34.520;150.798;2023-04-01T00:11:37;100459.41;;;20.02;52.14
63399;BME280;49533;-34.520;150.798;2023-04-01T00:14:05;100469.66;;;20.01;51.91
63399;BME280;49533;-34.520;150.798;2023-04-01T00:16:32;100499.50;;;20.22;51.76
63399;BME280;49533;-34.520;150.798;2023-04-01T00:18:59;100502.69;;;20.24;52.00
63399;BME280;49533;-34.520;150.798;2023-04-01T00:21:26;100423.66;;;19.79;52.12
63399;BME280;49533;-34.520;150.798;2023-04-01T00:23:54;100463.00;;;20.02;51.77
63399;BME280;49533;-34.520;150.798;2023-04-01T00:26:21;100409.41;;;19.73;51.93
63399;BME280;49533;-34.520;150.798;2023-04-01T00:28:49;100508.31;;;20.31;51.78
63399;BME280;49533;-34.520;150.798;2023-04-01T00:31:16;100500.41;;;20.30;51.84
63399;BME280;49533;-34.520;150.798;2023-04-01T00:33:43;100492.44;;;20.25;52.42
63399;BME280;49533;-34.520;150.798;2023-04-01T00:36:13;100493.59;;;20.20;52.40
63399;BME280;49533;-34.520;150.798;2023-04-01T00:38:42;100464.94;;;20.02;52.84
63399;BME280;49533;-34.520;150.798;2023-04-01T00:41:10;100507.41;;;20.24;53.17
63399;BME280;49533;-34.520;150.798;2023-04-01T00:43:42;100396.03;;;19.48;53.55
63399;BME280;49533;-34.520;150.798;2023-04-01T00:46:11;100489.88;;;20.09;53.53
63399;BME280;49533;-34.520;150.798;2023-04-01T00:48:42;100444.47;;;19.76;52.91
63399;BME280;49533;-34.520;150.798;2023-04-01T00:51:16;100480.69;;;20.01;53.59
63399;BME280;49533;-34.520;150.798;2023-04-01T00:53:48;100488.59;;;20.03;53.46
63399;BME280;49533;-34.520;150.798;2023-04-01T00:56:21;100479.91;;;20.01;54.17
63399;BME280;49533;-34.520;150.798;2023-04-01T00:58:59;100503.34;;;20.14;53.96
63399;BME280;49533;-34.520;150.798;2023-04-01T01:01:26;100512.94;;;20.24;53.99
63399;BME280;49533;-34.520;150.798;2023-04-01T01:03:56;100473.97;;;19.98;53.43
63399;BME280;49533;-34.520;150.798;2023-04-01T01:06:44;100486.59;;;20.00;54.05
63399;BME280;49533;-34.520;150.798;2023-04-01T01:09:27;100478.38;;;20.03;53.66
63399;BME280;49533;-34.520;150.798;2023-04-01T01:12:07;100508.22;;;20.24;53.85
63399;BME280;49533;-34.520;150.798;2023-04-01T01:14:52;100501.88;;;20.20;53.20
63399;BME280;49533;-34.520;150.798;2023-04-01T01:17:33;100499.50;;;20.22;53.47
63399;BME280;49533;-34.520;150.798;2023-04-01T01:20:36;100491.72;;;20.28;53.41
63399;BME280;49533;-34.520;150.798;2023-04-01T01:23:41;100498.84;;;20.32;52.79
63399;BME280;49533;-34.520;150.798;2023-04-01T01:32:17;100405.34;;;19.93;52.78
63399;BME280;49533;-34.520;150.798;2023-04-01T01:35:11;100447.09;;;20.22;52.61
63399;BME280;49533;-34.520;150.798;2023-04-01T01:37:43;100449.47;;;20.24;52.28
63399;BME280;49533;-34.520;150.798;2023-04-01T01:40:12;100439.09;;;20.13;52.21
63399;BME280;49533;-34.520;150.798;2023-04-01T01:42:45;100482.53;;;20.50;52.34
63399;BME280;49533;-34.520;150.798;2023-04-01T01:45:15;100482.59;;;20.54;52.16
63399;BME280;49533;-34.520;150.798;2023-04-01T01:47:45;100485.34;;;20.54;51.77
63399;BME280;49533;-34.520;150.798;2023-04-01T01:50:14;100482.59;;;20.54;52.10
63399;BME280;49533;-34.520;150.798;2023-04-01T01:52:42;100482.16;;;20.52;51.66
63399;BME280;49533;-34.520;150.798;2023-04-01T01:55:30;100463.09;;;20.39;51.69
63399;BME280;49533;-34.520;150.798;2023-04-01T01:58:04;100474.56;;;20.45;52.06
63399;BME280;49533;-34.520;150.798;2023-04-01T02:00:33;100435.66;;;20.20;51.51
63399;BME280;49533;-34.520;150.798;2023-04-01T02:03:01;100440.88;;;20.29;51.76
63399;BME280;49533;-34.520;150.798;2023-04-01T02:05:30;100471.56;;;20.54;51.95
63399;BME280;49533;-34.520;150.798;2023-04-01T02:08:06;100421.53;;;20.25;51.48
63399;BME280;49533;-34.520;150.798;2023-04-01T02:10:37;100456.44;;;20.44;51.52
63399;BME280;49533;-34.520;150.798;2023-04-01T02:13:14;100469.59;;;20.54;51.07
63399;BME280;49533;-34.520;150.798;2023-04-01T02:15:46;100414.81;;;20.23;51.24
63399;BME280;49533;-34.520;150.798;2023-04-01T02:18:15;100456.91;;;20.50;51.36
63399;BME280;49533;-34.520;150.798;2023-04-01T02:20:45;100468.06;;;20.57;51.44
63399;BME280;49533;-34.520;150.798;2023-04-01T02:23:13;100450.22;;;20.51;51.93
63399;BME280;49533;-34.520;150.798;2023-04-01T02:25:42;100466.88;;;20.58;51.96
63399;BME280;49533;-34.520;150.798;2023-04-01T02:28:10;100447.75;;;20.42;52.46
63399;BME280;49533;-34.520;150.798;2023-04-01T02:30:39;100439.44;;;20.38;52.00
63399;BME280;49533;-34.520;150.798;2023-04-01T02:33:09;100447.16;;;20.56;51.81
63399;BME280;49533;-34.520;150.798;2023-04-01T02:35:36;100460.63;;;20.61;51.71
63399;BME280;49533;-34.520;150.798;2023-04-01T02:38:04;100465.38;;;20.64;51.69
63399;BME280;49533;-34.520;150.798;2023-04-01T02:40:56;100435.56;;;20.47;51.62
63399;BME280;49533;-34.520;150.798;2023-04-01T02:43:24;100432.81;;;20.47;51.04
63399;BME280;49533;-34.520;150.798;2023-04-01T02:45:51;100381.97;;;20.14;50.70
63399;BME280;49533;-34.520;150.798;2023-04-01T02:48:18;100435.91;;;20.41;50.68
63399;BME280;49533;-34.520;150.798;2023-04-01T02:50:45;100462.19;;;20.58;50.98
63399;BME280;49533;-34.520;150.798;2023-04-01T02:53:13;100456.25;;;20.60;51.06
63399;BME280;49533;-34.520;150.798;2023-04-01T02:55:40;100412.16;;;20.33;50.67
63399;BME280;49533;-34.520;150.798;2023-04-01T02:58:07;100458.25;;;20.63;51.07
63399;BME280;49533;-34.520;150.798;2023-04-01T03:00:34;100404.31;;;20.35;51.16
63399;BME280;49533;-34.520;150.798;2023-04-01T03:03:01;100456.31;;;20.63;51.58
63399;BME280;49533;-34.520;150.798;2023-04-01T03:05:29;100454.34;;;20.64;51.88
63399;BME280;49533;-34.520;150.798;2023-04-01T03:07:56;100447.94;;;20.56;51.98
63399;BME280;49533;-34.520;150.798;2023-04-01T03:10:23;100455.91;;;20.65;51.81
63399;BME280;49533;-34.520;150.798;2023-04-01T03:12:50;100420.47;;;20.37;51.18
63399;BME280;49533;-34.520;150.798;2023-04-01T03:15:18;100439.91;;;20.48;51.73
63399;BME280;49533;-34.520;150.798;2023-04-01T03:17:45;100449.84;;;20.52;51.94
63399;BME280;49533;-34.520;150.798;2023-04-01T03:20:13;100452.59;;;20.52;52.04
63399;BME280;49533;-34.520;150.798;2023-04-01T03:22:40;100446.28;;;20.52;51.66
63399;BME280;49533;-34.520;150.798;2023-04-01T03:25:08;100423.22;;;20.33;51.75
63399;BME280;49533;-34.520;150.798;2023-04-01T03:27:37;100405.78;;;20.26;51.40
63399;BME280;49533;-34.520;150.798;2023-04-01T03:30:06;100435.94;;;20.45;51.65
63399;BME280;49533;-34.520;150.798;2023-04-01T03:32:33;100434.00;;;20.46;51.51
63399;BME280;49533;-34.520;150.798;2023-04-01T03:35:00;100434.38;;;20.44;51.10
63399;BME280;49533;-34.520;150.798;2023-04-01T03:37:27;100372.88;;;20.10;50.94
63399;BME280;49533;-34.520;150.798;2023-04-01T03:39:54;100436.81;;;20.53;51.06
63399;BME280;49533;-34.520;150.798;2023-04-01T03:42:21;100443.53;;;20.52;51.42
63399;BME280;49533;-34.520;150.798;2023-04-01T03:44:49;100454.56;;;20.52;51.68
63399;BME280;49533;-34.520;150.798;2023-04-01T03:47:16;100424.31;;;20.29;51.74
63399;BME280;49533;-34.520;150.798;2023-04-01T03:49:43;100405.34;;;20.24;51.83
63399;BME280;49533;-34.520;150.798;2023-04-01T03:52:11;100427.63;;;20.41;51.65
63399;BME280;49533;-34.520;150.798;2023-04-01T03:54:38;100307.25;;;19.62;51.89
63399;BME280;49533;-34.520;150.798;2023-04-01T03:57:06;100411.38;;;20.33;51.81
63399;BME280;49533;-34.520;150.798;2023-04-01T03:59:33;100427.75;;;20.52;51.87
63399;BME280;49533;-34.520;150.798;2023-04-01T04:02:01;100454.34;;;20.64;51.70
63399;BME280;49533;-34.520;150.798;2023-04-01T04:04:28;100444.31;;;20.52;52.00
63399;BME280;49533;-34.520;150.798;2023-04-01T04:06:55;100454.38;;;20.68;51.57
63399;BME280;49533;-34.520;150.798;2023-04-01T04:09:23;100440.09;;;20.58;51.11
63399;BME280;49533;-34.520;150.798;2023-04-01T04:11:50;100387.66;;;20.28;51.09
63399;BME280;49533;-34.520;150.798;2023-04-01T04:14:17;100424.31;;;20.59;50.97
63399;BME280;49533;-34.520;150.798;2023-04-01T04:16:44;100427.44;;;20.57;51.34
63399;BME280;49533;-34.520;150.798;2023-04-01T04:19:12;100326.25;;;20.01;51.40
63399;BME280;49533;-34.520;150.798;2023-04-01T04:21:40;100439.03;;;20.70;51.11
63399;BME280;49533;-34.520;150.798;2023-04-01T04:24:08;100426.75;;;20.64;51.12
63399;BME280;49533;-34.520;150.798;2023-04-01T04:26:36;100406.78;;;20.48;50.95
63399;BME280;49533;-34.520;150.798;2023-04-01T04:29:03;100434.28;;;20.71;50.72
63399;BME280;49533;-34.520;150.798;2023-04-01T04:31:30;100434.28;;;20.71;50.55
63399;BME280;49533;-34.520;150.798;2023-04-01T04:33:59;100427.50;;;20.61;50.69
63399;BME280;49533;-34.520;150.798;2023-04-01T04:36:27;100433.13;;;20.72;50.52
63399;BME280;49533;-34.520;150.798;2023-04-01T04:38:54;100385.03;;;20.39;50.46
63399;BME280;49533;-34.520;150.798;2023-04-01T04:41:22;100404.59;;;20.60;50.08
63399;BME280;49533;-34.520;150.798;2023-04-01T04:43:51;100445.81;;;20.76;49.87
63399;BME280;49533;-34.520;150.798;2023-04-01T04:46:20;100386.66;;;20.44;49.14
63399;BME280;49533;-34.520;150.798;2023-04-01T04:48:48;100433.03;;;20.61;48.88
63399;BME280;49533;-34.520;150.798;2023-04-01T04:51:16;100451.28;;;20.73;48.94
63399;BME280;49533;-34.520;150.798;2023-04-01T04:53:47;100446.97;;;20.75;49.27
63399;BME280;49533;-34.520;150.798;2023-04-01T04:56:19;100392.13;;;20.40;49.06
63399;BME280;49533;-34.520;150.798;2023-04-01T04:58:48;100443.00;;;20.73;49.36
63399;BME280;49533;-34.520;150.798;2023-04-01T05:01:17;100446.50;;;20.70;48.92
63399;BME280;49533;-34.520;150.798;2023-04-01T05:03:45;100411.50;;;20.44;48.64
63399;BME280;49533;-34.520;150.798;2023-04-01T05:06:14;100451.16;;;20.62;48.97
63399;BME280;49533;-34.520;150.798;2023-04-01T05:08:42;100449.19;;;20.62;48.72
63399;BME280;49533;-34.520;150.798;2023-04-01T05:11:13;100446.81;;;20.61;49.09
63399;BME280;49533;-34.520;150.798;2023-04-01T05:13:41;100414.59;;;20.38;49.48
63399;BME280;49533;-34.520;150.798;2023-04-01T05:16:10;100419.72;;;20.40;49.51
63399;BME280;49533;-34.520;150.798;2023-04-01T05:18:38;100446.88;;;20.68;49.60
63399;BME280;49533;-34.520;150.798;2023-04-01T05:21:08;100450.91;;;20.74;49.05
63399;BME280;49533;-34.520;150.798;2023-04-01T05:23:36;100417.81;;;20.44;49.06
63399;BME280;49533;-34.520;150.798;2023-04-01T05:26:05;100450.72;;;20.56;49.00
63399;BME280;49533;-34.520;150.798;2023-04-01T05:28:32;100449.81;;;20.49;49.10
63399;BME280;49533;-34.520;150.798;2023-04-01T05:31:00;100454.91;;;20.47;48.94
63399;BME280;49533;-34.520;150.798;2023-04-01T05:33:29;100456.44;;;20.44;48.15
63399;BME280;49533;-34.520;150.798;2023-04-01T05:35:56;100463.88;;;20.40;48.34
63399;BME280;49533;-34.520;150.798;2023-04-01T05:38:31;100460.66;;;20.34;48.76
63399;BME280;49533;-34.520;150.798;2023-04-01T05:41:00;100418.44;;;20.00;48.67
63399;BME280;49533;-34.520;150.798;2023-04-01T05:43:27;100442.16;;;20.05;48.80
63399;BME280;49533;-34.520;150.798;2023-04-01T05:45:56;100412.38;;;19.87;48.88
63399;BME280;49533;-34.520;150.798;2023-04-01T05:48:24;100471.19;;;20.25;49.04
63399;BME280;49533;-34.520;150.798;2023-04-01T05:50:51;100471.19;;;20.25;48.64
63399;BME280;49533;-34.520;150.798;2023-04-01T05:53:18;100399.66;;;19.79;49.09
63399;BME280;49533;-34.520;150.798;2023-04-01T05:55:45;100444.84;;;20.01;49.25
63399;BME280;49533;-34.520;150.798;2023-04-01T05:58:12;100458.75;;;20.08;49.34
63399;BME280;49533;-34.520;150.798;2023-04-01T06:00:39;100462.28;;;20.09;49.04
63399;BME280;49533;-34.520;150.798;2023-04-01T06:03:07;100465.44;;;20.07;49.14
63399;BME280;49533;-34.520;150.798;2023-04-01T06:05:40;100453.84;;;19.94;48.56
63399;BME280;49533;-34.520;150.798;2023-04-01T06:08:16;100476.50;;;20.11;47.86
63399;BME280;49533;-34.520;150.798;2023-04-01T06:11:15;100454.66;;;19.98;47.82
63399;BME280;49533;-34.520;150.798;2023-04-01T06:17:01;100476.41;;;20.04;47.99
63399;BME280;49533;-34.520;150.798;2023-04-01T06:19:55;100488.19;;;20.01;48.06
63399;BME280;49533;-34.520;150.798;2023-04-01T06:22:41;100457.16;;;19.81;47.81
63399;BME280;49533;-34.520;150.798;2023-04-01T06:25:21;100482.97;;;19.95;48.12
63399;BME280;49533;-34.520;150.798;2023-04-01T06:28:06;100494.00;;;19.95;47.98
63399;BME280;49533;-34.520;150.798;2023-04-01T06:30:44;100490.72;;;19.86;48.16
63399;BME280;49533;-34.520;150.798;2023-04-01T06:36:36;100446.16;;;19.58;48.45
63399;BME280;49533;-34.520;150.798;2023-04-01T06:39:22;100441.06;;;19.60;48.41
63399;BME280;49533;-34.520;150.798;2023-04-01T06:42:05;100472.13;;;19.80;48.30
63399;BME280;49533;-34.520;150.798;2023-04-01T06:44:57;100460.22;;;19.75;48.37
63399;BME280;49533;-34.520;150.798;2023-04-01T06:47:53;100487.25;;;19.89;48.13
63399;BME280;49533;-34.520;150.798;2023-04-01T06:50:30;100450.56;;;19.62;48.15
63399;BME280;49533;-34.520;150.798;2023-04-01T06:53:29;100496.66;;;19.88;48.43
63399;BME280;49533;-34.520;150.798;2023-04-01T06:56:04;100497.41;;;19.85;48.64
63399;BME280;49533;-34.520;150.798;2023-04-01T06:58:51;100480.28;;;19.72;48.56
63399;BME280;49533;-34.520;150.798;2023-04-01T07:01:33;100476.66;;;19.68;48.61
63399;BME280;49533;-34.520;150.798;2023-04-01T07:04:09;100474.28;;;19.67;48.30
63399;BME280;49533;-34.520;150.798;2023-04-01T07:06:45;100505.69;;;19.85;48.04
63399;BME280;49533;-34.520;150.798;2023-04-01T07:09:20;100494.09;;;19.76;48.31
63399;BME280;49533;-34.520;150.798;2023-04-01T07:11:50;100423.19;;;19.23;48.55
63399;BME280;49533;-34.520;150.798;2023-04-01T07:14:28;100521.66;;;19.76;48.84
63399;BME280;49533;-34.520;150.798;2023-04-01T07:17:04;100507.78;;;19.69;48.79
63399;BME280;49533;-34.520;150.798;2023-04-01T07:19:53;100528.78;;;19.77;48.67
63399;BME280;49533;-34.520;150.798;2023-04-01T07:22:33;100530.75;;;19.76;48.80
63399;BME280;49533;-34.520;150.798;2023-04-01T07:25:11;100427.22;;;19.06;49.07
63399;BME280;49533;-34.520;150.798;2023-04-01T07:27:40;100495.31;;;19.55;48.89
63399;BME280;49533;-34.520;150.798;2023-04-01T07:30:16;100518.50;;;19.74;49.13
63399;BME280;49533;-34.520;150.798;2023-04-01T07:32:51;100524.31;;;19.92;48.85
63399;BME280;49533;-34.520;150.798;2023-04-01T07:35:49;100475.00;;;19.64;48.83
63399;BME280;49533;-34.520;150.798;2023-04-01T07:38:51;100374.97;;;19.10;48.91
63399;BME280;49533;-34.520;150.798;2023-04-01T07:41:57;100526.13;;;20.07;48.63
63399;BME280;49533;-34.520;150.798;2023-04-01T07:44:40;100528.91;;;20.11;48.79
63399;BME280;49533;-34.520;150.798;2023-04-01T07:50:22;100528.47;;;20.09;48.82
63399;BME280;49533;-34.520;150.798;2023-04-01T07:53:15;100532.25;;;19.97;49.10
63399;BME280;49533;-34.520;150.798;2023-04-01T07:56:09;100532.50;;;19.88;49.36
63399;BME280;49533;-34.520;150.798;2023-04-01T07:58:59;100545.84;;;19.86;49.28
63399;BME280;49533;-34.520;150.798;2023-04-01T08:01:39;100540.31;;;19.83;49.50
63399;BME280;49533;-34.520;150.798;2023-04-01T08:04:26;100503.28;;;19.61;49.05
63399;BME280;49533;-34.520;150.798;2023-04-01T08:07:12;100495.00;;;19.61;49.14
63399;BME280;49533;-34.520;150.798;2023-04-01T08:10:03;100416.44;;;19.21;49.20
63399;BME280;49533;-34.520;150.798;2023-04-01T08:12:59;100537.84;;;20.04;49.09
63399;BME280;49533;-34.520;150.798;2023-04-01T08:15:47;100540.25;;;20.06;48.89
63399;BME280;49533;-34.520;150.798;2023-04-01T08:18:30;100506.09;;;19.87;48.74
63399;BME280;49533;-34.520;150.798;2023-04-01T08:21:02;100479.84;;;19.70;48.79
63399;BME280;49533;-34.520;150.798;2023-04-01T08:23:36;100534.28;;;20.00;49.07
63399;BME280;49533;-34.520;150.798;2023-04-01T08:29:11;100515.13;;;19.84;48.93
63399;BME280;49533;-34.520;150.798;2023-04-01T08:31:55;100546.22;;;20.08;48.84
63399;BME280;49533;-34.520;150.798;2023-04-01T08:34:28;100499.94;;;19.71;49.05
63399;BME280;49533;-34.520;150.798;2023-04-01T08:37:14;100564.03;;;20.14;49.01
63399;BME280;49533;-34.520;150.798;2023-04-01T08:39:48;100548.06;;;20.00;48.58
63399;BME280;49533;-34.520;150.798;2023-04-01T08:42:31;100559.56;;;20.06;48.83
63399;BME280;49533;-34.520;150.798;2023-04-01T08:45:25;100548.00;;;19.96;49.05
63399;BME280;49533;-34.520;150.798;2023-04-01T08:48:11;100540.47;;;19.93;49.13
63399;BME280;49533;-34.520;150.798;2023-04-01T08:53:57;100588.53;;;20.19;49.09
63399;BME280;49533;-34.520;150.798;2023-04-01T08:57:00;100547.50;;;19.91;49.09
63399;BME280;49533;-34.520;150.798;2023-04-01T08:59:57;100602.75;;;20.21;49.04
63399;BME280;49533;-34.520;150.798;2023-04-01T09:02:54;100597.25;;;20.21;48.76
63399;BME280;49533;-34.520;150.798;2023-04-01T09:05:38;100585.56;;;20.05;48.96
63399;BME280;49533;-34.520;150.798;2023-04-01T09:08:37;100555.44;;;19.92;48.88
63399;BME280;49533;-34.520;150.798;2023-04-01T09:11:17;100528.66;;;19.70;48.77
63399;BME280;49533;-34.520;150.798;2023-04-01T09:14:07;100584.69;;;20.01;49.15
63399;BME280;49533;-34.520;150.798;2023-04-01T09:17:05;100607.38;;;20.13;48.79
63399;BME280;49533;-34.520;150.798;2023-04-01T09:20:05;100554.88;;;19.83;49.11
63399;BME280;49533;-34.520;150.798;2023-04-01T09:22:50;100628.25;;;20.14;48.94
63399;BME280;49533;-34.520;150.798;2023-04-01T09:25:44;100599.53;;;19.92;49.21
63399;BME280;49533;-34.520;150.798;2023-04-01T09:28:20;100597.56;;;19.93;49.30
63399;BME280;49533;-34.520;150.798;2023-04-01T09:31:15;100636.59;;;20.18;48.95
63399;BME280;49533;-34.520;150.798;2023-04-01T09:34:11;100654.84;;;20.26;49.11
63399;BME280;49533;-34.520;150.798;2023-04-01T09:36:47;100659.19;;;20.27;49.42
63399;BME280;49533;-34.520;150.798;2023-04-01T09:39:37;100658.78;;;20.25;49.19
63399;BME280;49533;-34.520;150.798;2023-04-01T09:42:29;100668.22;;;20.24;49.31
63399;BME280;49533;-34.520;150.798;2023-04-01T09:45:07;100593.78;;;19.78;49.38
63399;BME280;49533;-34.520;150.798;2023-04-01T09:47:51;100545.53;;;19.45;49.67
63399;BME280;49533;-34.520;150.798;2023-04-01T09:50:33;100678.50;;;20.27;49.38
63399;BME280;49533;-34.520;150.798;2023-04-01T09:53:17;100682.50;;;20.30;49.77
63399;BME280;49533;-34.520;150.798;2023-04-01T09:56:05;100641.81;;;20.00;49.65
63399;BME280;49533;-34.520;150.798;2023-04-01T10:02:19;100663.28;;;20.10;49.64
63399;BME280;49533;-34.520;150.798;2023-04-01T10:05:22;100695.13;;;20.31;49.58
63399;BME280;49533;-34.520;150.798;2023-04-01T10:08:21;100670.31;;;20.08;49.87
63399;BME280;49533;-34.520;150.798;2023-04-01T10:14:22;100714.47;;;20.31;49.71
63399;BME280;49533;-34.520;150.798;2023-04-01T10:17:20;100683.72;;;20.09;49.79
63399;BME280;49533;-34.520;150.798;2023-04-01T10:20:12;100655.75;;;19.84;49.57
63399;BME280;49533;-34.520;150.798;2023-04-01T10:25:56;100720.34;;;20.29;49.69
63399;BME280;49533;-34.520;150.798;2023-04-01T10:31:45;100722.66;;;20.27;50.19
63399;BME280;49533;-34.520;150.798;2023-04-01T10:37:42;100694.72;;;20.06;50.39
63399;BME280;49533;-34.520;150.798;2023-04-01T10:40:36;100722.28;;;20.29;50.30
63399;BME280;49533;-34.520;150.798;2023-04-01T10:43:35;100722.28;;;20.29;50.60
63399;BME280;49533;-34.520;150.798;2023-04-01T10:49:29;100718.75;;;20.28;50.76
63399;BME280;49533;-34.520;150.798;2023-04-01T10:58:19;100688.31;;;20.02;51.25
63399;BME280;49533;-34.520;150.798;2023-04-01T11:01:22;100719.91;;;20.27;51.24
63399;BME280;49533;-34.520;150.798;2023-04-01T11:10:15;100728.16;;;20.27;51.30
63399;BME280;49533;-34.520;150.798;2023-04-01T11:13:14;100726.22;;;20.28;51.08
63399;BME280;49533;-34.520;150.798;2023-04-01T11:22:09;100722.84;;;20.15;51.35
63399;BME280;49533;-34.520;150.798;2023-04-01T11:24:51;100736.84;;;20.26;51.58
63399;BME280;49533;-34.520;150.798;2023-04-01T11:27:51;100745.53;;;20.28;51.58
63399;BME280;49533;-34.520;150.798;2023-04-01T11:30:44;100748.66;;;20.26;51.61
63399;BME280;49533;-34.520;150.798;2023-04-01T11:33:24;100719.53;;;20.06;51.87
63399;BME280;49533;-34.520;150.798;2023-04-01T11:39:03;100704.47;;;20.00;51.44
63399;BME280;49533;-34.520;150.798;2023-04-01T11:41:46;100749.41;;;20.23;51.34
63399;BME280;49533;-34.520;150.798;2023-04-01T11:44:19;100633.72;;;19.45;51.91
63399;BME280;49533;-34.520;150.798;2023-04-01T11:53:00;100742.88;;;20.12;52.23
63399;BME280;49533;-34.520;150.798;2023-04-01T11:55:44;100751.97;;;20.12;52.00
63399;BME280;49533;-34.520;150.798;2023-04-01T11:58:42;100750.44;;;20.15;52.15
63399;BME280;49533;-34.520;150.798;2023-04-01T12:01:30;100705.78;;;19.86;51.98
63399;BME280;49533;-34.520;150.798;2023-04-01T12:04:33;100724.19;;;20.02;52.10
63399;BME280;49533;-34.520;150.798;2023-04-01T12:07:19;100754.03;;;20.19;52.18
63399;BME280;49533;-34.520;150.798;2023-04-01T12:09:58;100752.91;;;20.20;51.94
63399;BME280;49533;-34.520;150.798;2023-04-01T12:12:41;100756.81;;;20.19;52.42
63399;BME280;49533;-34.520;150.798;2023-04-01T12:15:36;100754.47;;;20.21;51.79
63399;BME280;49533;-34.520;150.798;2023-04-01T12:18:30;100750.00;;;20.13;52.08
63399;BME280;49533;-34.520;150.798;2023-04-01T12:21:25;100741.59;;;20.06;52.34
63399;BME280;49533;-34.520;150.798;2023-04-01T12:24:23;100757.25;;;20.21;52.52
63399;BME280;49533;-34.520;150.798;2023-04-01T12:27:14;100690.69;;;19.80;52.23
63399;BME280;49533;-34.520;150.798;2023-04-01T12:30:11;100740.25;;;20.19;52.29
63399;BME280;49533;-34.520;150.798;2023-04-01T12:33:03;100708.81;;;20.01;52.19
63399;BME280;49533;-34.520;150.798;2023-04-01T12:36:01;100706.91;;;20.05;52.36
63399;BME280;49533;-34.520;150.798;2023-04-01T12:38:57;100722.16;;;19.98;52.53
63399;BME280;49533;-34.520;150.798;2023-04-01T12:41:45;100760.94;;;20.29;52.60
63399;BME280;49533;-34.520;150.798;2023-04-01T12:44:38;100719.34;;;19.95;52.77
63399;BME280;49533;-34.520;150.798;2023-04-01T12:47:25;100730.13;;;20.04;52.52
63399;BME280;49533;-34.520;150.798;2023-04-01T12:50:28;100763.50;;;20.18;52.45
63399;BME280;49533;-34.520;150.798;2023-04-01T12:55:42;100704.63;;;19.87;52.89
63399;BME280;49533;-34.520;150.798;2023-04-01T12:58:35;100767.53;;;20.24;52.98
63399;BME280;49533;-34.520;150.798;2023-04-01T13:04:30;100762.91;;;20.28;53.11
63399;BME280;49533;-34.520;150.798;2023-04-01T13:15:58;100773.94;;;20.28;53.33
63399;BME280;49533;-34.520;150.798;2023-04-01T13:18:55;100773.50;;;20.26;53.52
63399;BME280;49533;-34.520;150.798;2023-04-01T13:21:44;100774.66;;;20.25;53.71
63399;BME280;49533;-34.520;150.798;2023-04-01T13:27:21;100741.91;;;20.01;54.07
63399;BME280;49533;-34.520;150.798;2023-04-01T13:33:17;100769.56;;;20.27;53.78
63399;BME280;49533;-34.520;150.798;2023-04-01T13:36:07;100771.16;;;20.28;53.65
63399;BME280;49533;-34.520;150.798;2023-04-01T13:41:50;100770.00;;;20.29;54.04
63399;BME280;49533;-34.520;150.798;2023-04-01T13:44:51;100739.28;;;20.08;53.83
63399;BME280;49533;-34.520;150.798;2023-04-01T13:47:41;100761.19;;;20.20;53.82
63399;BME280;49533;-34.520;150.798;2023-04-01T13:50:32;100740.41;;;20.07;53.98
63399;BME280;49533;-34.520;150.798;2023-04-01T13:53:23;100729.38;;;20.07;53.83
63399;BME280;49533;-34.520;150.798;2023-04-01T13:56:15;100752.50;;;20.22;53.62
63399;BME280;49533;-34.520;150.798;2023-04-01T13:59:10;100692.81;;;19.87;53.90
63399;BME280;49533;-34.520;150.798;2023-04-01T14:05:03;100758.97;;;20.29;54.06
63399;BME280;49533;-34.520;150.798;2023-04-01T14:07:50;100757.00;;;20.30;53.86
63399;BME280;49533;-34.520;150.798;2023-04-01T14:10:36;100763.69;;;20.29;53.73
63399;BME280;49533;-34.520;150.798;2023-04-01T14:13:23;100753.44;;;20.29;53.98
63399;BME280;49533;-34.520;150.798;2023-04-01T14:16:14;100753.44;;;20.29;53.83
63399;BME280;49533;-34.520;150.798;2023-04-01T14:22:05;100745.53;;;20.28;53.60
63399;BME280;49533;-34.520;150.798;2023-04-01T14:24:58;100742.16;;;20.15;54.01
63399;BME280;49533;-34.520;150.798;2023-04-01T14:27:44;100722.66;;;20.04;53.86
63399;BME280;49533;-34.520;150.798;2023-04-01T14:30:40;100714.31;;;20.01;53.99
63399;BME280;49533;-34.520;150.798;2023-04-01T14:33:34;100737.50;;;20.19;54.12
63399;BME280;49533;-34.520;150.798;2023-04-01T14:36:29;100734.38;;;20.20;53.82
63399;BME280;49533;-34.520;150.798;2023-04-01T14:42:18;100739.81;;;20.17;53.70
63399;BME280;49533;-34.520;150.798;2023-04-01T14:45:07;100732.28;;;20.14;53.64
63399;BME280;49533;-34.520;150.798;2023-04-01T14:47:58;100700.78;;;19.92;53.62
63399;BME280;49533;-34.520;150.798;2023-04-01T14:50:30;100710.38;;;20.02;53.63
63399;BME280;49533;-34.520;150.798;2023-04-01T14:53:23;100733.50;;;20.16;53.79
63399;BME280;49533;-34.520;150.798;2023-04-01T14:55:56;100722.28;;;20.06;53.67
63399;BME280;49533;-34.520;150.798;2023-04-01T15:01:32;100718.94;;;20.16;53.80
63399;BME280;49533;-34.520;150.798;2023-04-01T15:04:33;100718.50;;;20.14;53.74